Time;durP1;ratioP1;P1;durP2;ratioP2;P2;SDS_P1;SDS_P2;PMS_P1;PMS_P2;Temp;Humidity;BMP_temperature;BMP_pressure;BME280_temperature;BME280_humidity;BME280_pressure;Samples;Min_cycle;Max_cycle;Signal;HPM_P1;HPM_P2
2023/09/19 00:01:34;;;;;;;2.72;1.20;;;;;;;22.48;47.34;100823.25;16112866;19;130938;-54
2023/09/19 00:06:56;;;;;;;4.53;1.13;;;;;;;22.47;47.36;100821.56;16110468;19;131180;-57
2023/09/19 00:12:18;;;;;;;3.80;0.90;;;;;;;22.44;47.30;100821.00;16111353;19;129550;-55
2023/09/19 00:17:40;;;;;;;2.22;0.80;;;;;;;22.46;47.57;100839.41;16109682;19;129369;-56
2023/09/19 00:23:04;;;;;;;3.30;1.13;;;;;;;22.44;47.51;100840.50;16108642;19;130369;-58
2023/09/19 00:28:26;;;;;;;2.67;0.80;;;;;;;22.43;47.43;100841.63;16109078;19;130655;-57
2023/09/19 00:33:49;;;;;;;3.53;0.90;;;;;;;22.43;47.54;100857.53;16116378;19;130936;-55
2023/09/19 00:39:10;;;;;;;2.60;1.00;;;;;;;22.42;47.28;100864.19;16121607;19;130788;-55
2023/09/19 00:44:34;;;;;;;2.70;1.00;;;;;;;22.41;47.50;100860.56;16124652;19;129674;-56
2023/09/19 00:49:57;;;;;;;3.38;0.90;;;;;;;22.40;47.42;100866.41;16121792;19;129385;-54
2023/09/19 00:55:22;;;;;;;2.70;0.80;;;;;;;22.39;47.37;100875.88;16121728;19;129907;-57
2023/09/19 01:00:44;;;;;;;3.90;0.90;;;;;;;22.36;47.28;100877.28;16121525;19;129623;-55
2023/09/19 01:06:08;;;;;;;1.58;0.85;;;;;;;22.37;47.42;100890.13;16118412;19;130194;-56
2023/09/19 01:11:40;;;;;;;2.30;0.70;;;;;;;22.36;47.08;100893.16;16118299;19;131368;-54
2023/09/19 01:17:35;;;;;;;3.20;1.00;;;;;;;22.35;47.32;100894.25;16115581;19;130375;-56
2023/09/19 01:23:17;;;;;;;1.65;0.75;;;;;;;22.35;47.32;100886.75;16119593;19;129260;-56
2023/09/19 01:29:07;;;;;;;2.13;0.70;;;;;;;22.33;47.16;100900.13;16121468;19;130298;-57
2023/09/19 01:34:48;;;;;;;1.63;0.70;;;;;;;22.33;47.29;100894.53;16123403;19;130396;-56
2023/09/19 01:40:17;;;;;;;1.33;0.70;;;;;;;22.32;47.45;100892.03;16124490;19;134635;-55
2023/09/19 01:46:13;;;;;;;2.50;0.80;;;;;;;22.30;47.30;100897.03;16116116;19;129513;-56
2023/09/19 01:52:12;;;;;;;2.90;0.80;;;;;;;22.31;47.28;100904.28;16117085;19;130233;-58
2023/09/19 01:57:40;;;;;;;1.92;0.90;;;;;;;22.28;47.20;100902.88;16119863;19;129963;-57
2023/09/19 02:03:03;;;;;;;2.63;0.80;;;;;;;22.27;47.58;100906.78;16115243;19;130788;-54
2023/09/19 02:08:26;;;;;;;3.42;0.70;;;;;;;22.26;47.42;100900.38;16117795;19;130170;-58
2023/09/19 02:13:53;;;;;;;2.65;0.82;;;;;;;22.26;47.37;100889.22;16118379;19;129679;-53
2023/09/19 02:19:15;;;;;;;2.35;0.70;;;;;;;22.26;47.24;100905.94;16115994;19;129939;-62
2023/09/19 02:24:38;;;;;;;1.63;0.57;;;;;;;22.25;47.43;100897.88;16113458;19;132105;-59
2023/09/19 02:30:03;;;;;;;3.17;0.90;;;;;;;22.23;47.20;100903.69;16118954;19;129910;-54
2023/09/19 02:35:25;;;;;;;2.90;0.70;;;;;;;22.22;47.07;100896.44;16116166;19;130634;-56
2023/09/19 02:40:47;;;;;;;3.00;0.70;;;;;;;22.21;47.29;100893.94;16118666;19;129531;-56
2023/09/19 02:46:11;;;;;;;3.50;0.88;;;;;;;22.22;47.34;100895.63;16115610;19;131211;-56
2023/09/19 02:51:34;;;;;;;1.60;0.70;;;;;;;22.22;47.24;100903.97;16116076;19;130366;-56
2023/09/19 02:56:56;;;;;;;2.90;1.10;;;;;;;22.20;47.12;100912.59;16116486;19;129505;-56
2023/09/19 03:02:18;;;;;;;3.47;0.90;;;;;;;22.19;46.97;100904.47;16114815;19;131042;-53
2023/09/19 03:07:42;;;;;;;3.75;0.82;;;;;;;22.18;47.38;100916.72;16114003;19;129153;-55
2023/09/19 03:13:05;;;;;;;2.92;0.95;;;;;;;22.16;47.08;100905.88;16113123;19;131989;-52
2023/09/19 03:18:27;;;;;;;3.28;1.00;;;;;;;22.16;47.04;100903.09;16113148;19;129627;-53
2023/09/19 03:23:49;;;;;;;1.70;0.80;;;;;;;22.16;47.10;100902.22;16111282;19;129438;-54
2023/09/19 03:29:13;;;;;;;1.77;0.77;;;;;;;22.15;47.13;100914.50;16111566;19;131266;-53
2023/09/19 03:34:43;;;;;;;4.45;1.10;;;;;;;22.13;47.29;100910.03;16112366;19;130446;-57
2023/09/19 03:40:06;;;;;;;2.40;0.90;;;;;;;22.13;46.93;100918.41;16112266;19;132906;-57
2023/09/19 03:45:29;;;;;;;3.03;1.20;;;;;;;22.11;47.18;100909.47;16115242;19;130499;-55
2023/09/19 03:50:52;;;;;;;3.17;1.23;;;;;;;22.10;46.96;100907.78;16113282;19;129867;-54
2023/09/19 03:56:14;;;;;;;2.03;0.80;;;;;;;22.10;46.81;100902.22;16111408;19;129359;-56
2023/09/19 04:01:37;;;;;;;3.13;1.17;;;;;;;22.10;46.82;100910.56;16110842;19;131568;-55
2023/09/19 04:06:59;;;;;;;5.30;1.00;;;;;;;22.09;46.51;100916.44;16113005;19;132738;-56
2023/09/19 04:12:21;;;;;;;5.68;1.25;;;;;;;22.09;46.68;100917.25;16124144;19;129569;-56
2023/09/19 04:17:43;;;;;;;3.33;1.00;;;;;;;22.08;46.89;100923.09;16123868;19;129275;-57
2023/09/19 04:23:05;;;;;;;4.68;1.13;;;;;;;22.06;46.76;100920.56;16124756;19;133002;-55
2023/09/19 04:28:28;;;;;;;2.35;0.90;;;;;;;22.07;46.47;100930.63;16122400;19;129783;-55
2023/09/19 04:33:49;;;;;;;3.95;1.10;;;;;;;22.05;46.46;100927.25;16125323;19;129083;-54
2023/09/19 04:39:12;;;;;;;6.68;1.48;;;;;;;22.04;46.56;100942.28;16124484;19;130157;-55
2023/09/19 04:44:34;;;;;;;6.10;1.30;;;;;;;22.05;46.46;100957.06;16121966;19;132147;-56
2023/09/19 04:49:58;;;;;;;5.72;1.45;;;;;;;22.04;46.50;100947.84;16121903;19;131092;-55
2023/09/19 04:55:20;;;;;;;3.97;1.10;;;;;;;22.04;46.36;100950.66;16124337;19;130841;-55
2023/09/19 05:00:42;;;;;;;3.55;1.20;;;;;;;22.02;46.19;100975.16;16121641;19;129640;-57
2023/09/19 05:06:05;;;;;;;3.83;1.35;;;;;;;22.03;46.44;100973.22;16116282;19;130546;-56
2023/09/19 05:11:27;;;;;;;3.88;1.15;;;;;;;22.00;46.20;100971.81;16122185;19;130651;-56
2023/09/19 05:16:48;;;;;;;5.35;1.55;;;;;;;21.98;46.33;100974.03;16121564;19;129862;-54
2023/09/19 05:22:12;;;;;;;5.05;1.33;;;;;;;21.97;46.11;100980.69;16122012;19;129946;-56
2023/09/19 05:27:34;;;;;;;5.13;1.30;;;;;;;21.99;45.77;100978.47;16124502;19;129947;-55
2023/09/19 05:32:56;;;;;;;12.75;2.00;;;;;;;21.98;45.55;100974.03;16116530;19;130836;-56
2023/09/19 05:38:19;;;;;;;6.32;1.58;;;;;;;21.97;45.67;100980.69;16118345;19;129232;-57
2023/09/19 05:43:41;;;;;;;11.43;1.70;;;;;;;21.96;45.03;100968.72;16118743;19;130548;-55
2023/09/19 05:49:04;;;;;;;5.30;1.42;;;;;;;21.97;45.51;100981.53;16113207;19;130848;-56
2023/09/19 05:54:27;;;;;;;12.13;2.60;;;;;;;21.97;45.48;100980.69;16115139;19;130972;-54
2023/09/19 05:59:50;;;;;;;5.32;1.30;;;;;;;21.96;45.55;100984.59;16117757;19;131122;-55
2023/09/19 06:05:12;;;;;;;10.63;2.40;;;;;;;21.93;45.25;100985.13;16114558;19;129852;-55
2023/09/19 06:10:34;;;;;;;10.50;2.22;;;;;;;21.90;44.41;100992.06;16119359;19;128899;-54
2023/09/19 06:15:56;;;;;;;9.93;2.33;;;;;;;21.88;44.84;100991.50;16115345;19;130360;-53
2023/09/19 06:21:19;;;;;;;9.40;2.15;;;;;;;21.84;44.44;100982.00;16116527;19;129515;-48
2023/09/19 06:26:41;;;;;;;11.68;2.22;;;;;;;21.81;44.45;100986.16;16120471;19;129199;-55
2023/09/19 06:32:12;;;;;;;11.82;1.95;;;;;;;21.82;44.10;100990.63;16118443;19;129519;-56
2023/09/19 06:37:40;;;;;;;9.13;2.03;;;;;;;21.81;44.41;101013.16;16115812;19;130217;-55
2023/09/19 06:43:04;;;;;;;11.48;2.13;;;;;;;21.82;43.72;101001.75;16123227;19;129700;-55
2023/09/19 06:48:26;;;;;;;9.85;1.83;;;;;;;21.85;43.68;101016.25;16122926;19;131670;-53
2023/09/19 06:53:49;;;;;;;11.75;3.08;;;;;;;21.85;43.59;101021.81;16121259;19;130022;-53
2023/09/19 06:59:14;;;;;;;9.85;2.30;;;;;;;21.86;43.46;101006.78;16123161;19;130550;-53
2023/09/19 07:04:36;;;;;;;;;;;;;;;21.85;43.19;101024.59;16119820;19;129555;-55
2023/09/19 07:09:58;;;;;;;13.43;2.08;;;;;;;21.92;43.55;101016.84;16124784;19;130170;-54
2023/09/19 07:15:21;;;;;;;10.55;2.30;;;;;;;21.94;43.77;101004.38;16125054;19;129914;-53
2023/09/19 07:20:50;;;;;;;8.50;1.88;;;;;;;21.98;43.77;101004.66;16121829;19;131674;-53
2023/09/19 07:26:13;;;;;;;8.65;1.88;;;;;;;22.01;43.27;101009.72;16126989;19;129311;-53
2023/09/19 07:31:35;;;;;;;10.82;2.03;;;;;;;22.02;43.78;101011.38;16122097;19;129449;-54
2023/09/19 07:36:57;;;;;;;12.70;2.55;;;;;;;22.01;43.13;101006.91;16114150;19;129672;-54
2023/09/19 07:42:19;;;;;;;11.02;2.28;;;;;;;22.06;43.62;101017.25;16112691;19;129697;-60
2023/09/19 07:47:45;;;;;;;8.90;2.30;;;;;;;22.12;43.50;101005.03;16122695;19;129267;-61
2023/09/19 07:53:07;;;;;;;8.82;1.95;;;;;;;22.17;42.94;101023.72;16120023;19;129349;-57
2023/09/19 07:58:29;;;;;;;8.15;2.05;;;;;;;22.24;43.30;101025.19;16115194;19;130313;-53
2023/09/19 08:03:51;;;;;;;9.93;2.22;;;;;;;22.27;42.85;101021.06;16109407;19;129893;-53
2023/09/19 08:09:20;;;;;;;11.73;2.13;;;;;;;22.32;42.96;101014.66;16106323;19;131137;-55
2023/09/19 08:14:48;;;;;;;13.77;3.00;;;;;;;22.35;42.78;101019.69;16113623;19;130741;-49
2023/09/19 08:20:19;;;;;;;8.43;1.98;;;;;;;22.44;42.89;101018.09;16111396;19;134532;-54
2023/09/19 08:25:41;;;;;;;7.82;1.77;;;;;;;22.54;42.71;101012.56;16113164;19;130287;-54
2023/09/19 08:31:04;;;;;;;8.45;2.17;;;;;;;22.60;42.66;101010.63;16110122;19;130744;-54
2023/09/19 08:36:26;;;;;;;8.80;1.92;;;;;;;22.60;42.71;101019.00;16109066;19;130476;-50
2023/09/19 08:41:49;;;;;;;6.20;2.00;;;;;;;22.62;42.19;101015.94;16109491;19;129636;-54
2023/09/19 08:47:15;;;;;;;7.47;1.92;;;;;;;22.62;42.16;101014.00;16107805;19;131278;-52
2023/09/19 08:52:45;;;;;;;8.32;2.10;;;;;;;22.62;42.38;101030.72;16105962;19;129499;-49
2023/09/19 08:58:10;;;;;;;11.10;2.35;;;;;;;22.59;42.58;101020.09;16120272;19;130724;-53
2023/09/19 09:03:34;;;;;;;9.30;2.03;;;;;;;22.54;42.63;101014.50;16121856;19;129851;-53
2023/09/19 09:08:57;;;;;;;8.93;1.98;;;;;;;22.53;42.74;101010.03;16120290;19;131200;-55
2023/09/19 09:14:24;;;;;;;9.18;2.00;;;;;;;22.47;42.26;101011.13;16122310;19;129785;-52
2023/09/19 09:19:47;;;;;;;9.05;2.42;;;;;;;22.42;42.66;101009.16;16123586;19;130968;-50
2023/09/19 09:25:09;;;;;;;10.70;2.10;;;;;;;22.41;42.88;101007.47;16119747;19;131093;-53
2023/09/19 09:30:37;;;;;;;7.00;1.50;;;;;;;22.41;42.68;100999.09;16121574;19;129815;-57
2023/09/19 09:36:02;;;;;;;7.95;2.05;;;;;;;22.36;42.46;100997.13;16119772;19;129992;-55
2023/09/19 09:41:37;;;;;;;;;;;;;;;22.31;42.31;100994.31;16119489;19;130003;-52
2023/09/19 09:47:27;;;;;;;12.38;2.42;;;;;;;22.32;42.72;100982.06;16118980;19;130185;-51
2023/09/19 09:52:45;;;;;;;8.25;1.88;;;;;;;22.33;42.63;100980.13;16120621;19;129880;-51
2023/09/19 09:58:17;;;;;;;7.95;2.05;;;;;;;22.35;42.32;100991.81;16119332;19;129698;-53
2023/09/19 10:03:40;;;;;;;11.25;3.03;;;;;;;22.34;42.46;101007.72;16112401;19;129689;-53
2023/09/19 10:09:29;;;;;;;12.02;2.33;;;;;;;22.36;42.81;100999.91;16115850;19;131167;-53
2023/09/19 10:14:53;;;;;;;8.07;2.20;;;;;;;22.35;42.45;100997.38;16113574;19;131072;-49
2023/09/19 10:20:32;;;;;;;11.20;2.30;;;;;;;22.37;42.46;100986.81;16112826;19;130804;-53
2023/09/19 10:25:55;;;;;;;16.90;2.58;;;;;;;22.36;41.72;100988.78;16114750;19;129831;-52
2023/09/19 10:31:24;;;;;;;12.57;2.20;;;;;;;22.39;41.75;100973.44;16118101;19;129749;-55
2023/09/19 10:36:46;;;;;;;8.13;2.17;;;;;;;22.42;41.66;100972.91;16114061;19;130591;-52
2023/09/19 10:42:15;;;;;;;8.90;2.08;;;;;;;22.44;41.49;100968.75;16115630;19;129814;-56
2023/09/19 10:47:37;;;;;;;9.55;1.92;;;;;;;22.57;41.41;100963.78;16116797;19;129600;-57
2023/09/19 10:53:06;;;;;;;8.57;1.35;;;;;;;22.57;41.74;100960.97;16118209;19;130209;-54
2023/09/19 10:58:38;;;;;;;9.57;1.95;;;;;;;22.54;42.22;100953.16;16115251;19;129495;-50
2023/09/19 11:04:29;;;;;;;32.03;3.38;;;;;;;22.54;41.89;100964.31;16119291;19;130527;-54
2023/09/19 11:09:58;;;;;;;20.25;2.53;;;;;;;22.51;42.25;100956.50;16117428;19;129556;-53
2023/09/19 11:15:58;;;;;;;15.57;2.30;;;;;;;22.50;42.70;100952.88;16116625;19;131063;-54
2023/09/19 11:21:30;;;;;;;13.30;2.22;;;;;;;22.47;42.85;100953.41;16115946;19;130164;-56
2023/09/19 11:27:17;;;;;;;15.93;2.30;;;;;;;22.46;42.62;100953.69;16115343;19;129762;-54
2023/09/19 11:33:23;;;;;;;12.80;1.90;;;;;;;22.46;42.78;100936.97;16115138;19;129697;-56
2023/09/19 11:38:45;;;;;;;16.08;2.13;;;;;;;22.42;42.90;100915.19;16116718;19;130364;-51
2023/09/19 11:44:10;;;;;;;;;;;;;;;22.40;42.79;100906.28;16115885;19;130638;-51
2023/09/19 11:49:33;;;;;;;7.45;2.15;;;;;;;22.46;42.37;100928.59;16111877;19;129767;-47
2023/09/19 11:54:57;;;;;;;8.40;1.70;;;;;;;22.48;42.62;100918.03;16115838;19;129713;-49
2023/09/19 12:00:19;;;;;;;6.75;1.50;;;;;;;22.50;42.62;100932.53;16114509;19;129579;-47
2023/09/19 12:05:41;;;;;;;12.00;1.40;;;;;;;22.52;42.53;100925.56;16115469;19;129378;-52
2023/09/19 12:11:04;;;;;;;7.78;1.85;;;;;;;22.54;42.93;100914.97;16112087;19;129863;-50
2023/09/19 12:16:30;;;;;;;5.88;1.70;;;;;;;22.56;42.67;100931.41;16115023;19;129392;-51
2023/09/19 12:22:05;;;;;;;5.65;1.77;;;;;;;22.57;42.43;100910.78;16111931;19;131395;-54
2023/09/19 12:27:28;;;;;;;6.15;1.60;;;;;;;22.56;42.73;100920.28;16113293;19;129921;-46
2023/09/19 12:32:50;;;;;;;5.88;1.52;;;;;;;22.59;42.82;100908.56;16126845;19;132137;-53
2023/09/19 12:38:28;;;;;;;6.05;1.42;;;;;;;22.58;42.68;100912.47;16125272;19;129609;-53
2023/09/19 12:43:53;;;;;;;6.35;1.38;;;;;;;22.54;42.53;100914.97;16125195;19;135795;-51
2023/09/19 12:49:19;;;;;;;10.00;1.37;;;;;;;22.53;42.79;100927.25;16124484;19;130417;-54
2023/09/19 12:54:43;;;;;;;8.27;1.40;;;;;;;22.53;42.98;100930.03;16123033;19;129697;-53
2023/09/19 13:00:07;;;;;;;8.80;1.13;;;;;;;22.52;43.16;100924.75;16124928;19;134241;-48
2023/09/19 13:05:50;;;;;;;7.85;1.40;;;;;;;22.52;43.62;100924.75;16124890;19;129987;-47
2023/09/19 13:11:20;;;;;;;9.77;1.20;;;;;;;22.49;43.85;100928.06;16124108;19;129916;-54
2023/09/19 13:17:15;;;;;;;6.07;1.20;;;;;;;22.48;43.56;100906.88;16122437;19;129645;-48
2023/09/19 13:22:49;;;;;;;6.18;1.40;;;;;;;22.47;43.81;100919.13;16122849;19;129295;-52
2023/09/19 13:28:11;;;;;;;8.27;1.83;;;;;;;22.46;44.37;100920.25;16122537;19;131186;-47
2023/09/19 13:33:34;;;;;;;5.18;1.35;;;;;;;22.44;44.36;100912.97;16122382;19;129636;-54
2023/09/19 13:38:55;;;;;;;6.13;1.30;;;;;;;22.42;44.61;100909.63;16118471;19;129748;-48
2023/09/19 13:44:17;;;;;;;8.00;1.70;;;;;;;22.40;44.60;100914.63;16119970;19;131225;-51
2023/09/19 13:49:39;;;;;;;4.22;1.10;;;;;;;22.39;44.49;100914.91;16117058;19;130550;-51
2023/09/19 13:55:01;;;;;;;7.68;1.42;;;;;;;22.38;45.02;100902.94;16119356;19;131038;-48
2023/09/19 14:00:24;;;;;;;7.75;1.50;;;;;;;22.37;44.92;100900.41;16122767;19;130003;-49
2023/09/19 14:05:46;;;;;;;8.60;1.50;;;;;;;22.36;45.10;100896.78;16121057;19;130129;-53
2023/09/19 14:11:08;;;;;;;10.10;1.55;;;;;;;22.37;45.11;100901.25;16117181;19;129504;-52
2023/09/19 14:16:31;;;;;;;9.00;1.55;;;;;;;22.38;44.90;100900.16;16113258;19;130240;-47
2023/09/19 14:21:55;;;;;;;15.23;1.80;;;;;;;22.41;45.51;100895.97;16114119;19;130530;-51
2023/09/19 14:27:18;;;;;;;11.93;1.73;;;;;;;22.40;45.29;100891.50;16122701;19;130656;-51
2023/09/19 14:32:40;;;;;;;9.20;1.30;;;;;;;22.40;45.42;100895.13;16118742;19;130374;-51
2023/09/19 14:38:02;;;;;;;10.55;1.75;;;;;;;22.40;45.09;100897.09;16118159;19;129669;-49
2023/09/19 14:43:29;;;;;;;7.20;1.33;;;;;;;22.41;45.31;100891.22;16117786;19;128899;-50
2023/09/19 14:48:52;;;;;;;15.32;1.30;;;;;;;22.42;45.33;100878.97;16117631;19;130614;-50
2023/09/19 14:54:17;;;;;;;19.95;2.22;;;;;;;22.42;45.42;100881.75;16115092;19;129658;-50
2023/09/19 14:59:39;;;;;;;12.68;2.20;;;;;;;22.42;45.41;100876.19;16119340;19;131208;-49
2023/09/19 15:05:01;;;;;;;41.58;2.58;;;;;;;22.43;45.46;100865.88;16117135;19;129734;-48
2023/09/19 15:10:23;;;;;;;24.75;1.50;;;;;;;22.40;45.67;100878.41;16117012;19;129612;-50
2023/09/19 15:15:48;;;;;;;9.20;1.75;;;;;;;22.38;45.66;100875.06;16115594;19;129765;-48
2023/09/19 15:21:11;;;;;;;14.05;2.10;;;;;;;22.35;45.70;100886.75;16111836;19;130912;-51
2023/09/19 15:26:33;;;;;;;16.42;2.03;;;;;;;22.32;46.31;100892.88;16109143;19;129591;-52
2023/09/19 15:31:58;;;;;;;14.57;1.67;;;;;;;22.31;46.50;100891.19;16112452;19;133605;-52
2023/09/19 15:37:20;;;;;;;10.20;1.60;;;;;;;22.28;46.56;100888.94;16108731;19;132360;-54
2023/09/19 15:42:43;;;;;;;10.95;2.00;;;;;;;22.25;46.79;100881.16;16112818;19;130755;-52
2023/09/19 15:48:05;;;;;;;16.05;2.50;;;;;;;22.21;47.17;100886.44;16110237;19;130926;-50
2023/09/19 15:53:41;;;;;;;6.72;1.60;;;;;;;22.19;46.96;100883.03;16108007;19;129900;-55
2023/09/19 15:59:04;;;;;;;14.70;2.47;;;;;;;22.17;47.46;100889.97;16109188;19;130433;-52
2023/09/19 16:04:26;;;;;;;10.68;2.08;;;;;;;22.15;47.39;100875.50;16119790;19;130732;-51
2023/09/19 16:09:48;;;;;;;20.15;2.60;;;;;;;22.13;47.62;100879.41;16129834;19;130562;-53
2023/09/19 16:15:11;;;;;;;13.23;3.13;;;;;;;22.12;47.70;100883.28;16126948;19;130075;-55
2023/09/19 16:20:34;;;;;;;15.67;2.57;;;;;;;22.08;47.84;100893.28;16123450;19;129219;-53
2023/09/19 16:26:08;;;;;;;8.40;2.55;;;;;;;22.09;48.00;100883.00;16123020;19;129922;-52
2023/09/19 16:31:32;;;;;;;21.05;2.72;;;;;;;22.06;47.79;100889.09;16122276;19;132874;-52
2023/09/19 16:36:54;;;;;;;8.03;2.20;;;;;;;22.05;47.73;100885.47;16124091;19;129699;-48
2023/09/19 16:42:17;;;;;;;11.65;2.30;;;;;;;22.03;47.73;100890.47;16120247;19;130944;-55
2023/09/19 16:47:41;;;;;;;11.00;2.13;;;;;;;22.03;47.56;100889.63;16123516;19;129351;-53
2023/09/19 16:53:04;;;;;;;17.15;3.05;;;;;;;22.01;47.58;100891.84;16120643;19;129728;-54
2023/09/19 16:58:25;;;;;;;8.65;2.42;;;;;;;21.99;48.11;100892.13;16123520;19;130543;-53
2023/09/19 17:03:48;;;;;;;12.35;2.47;;;;;;;21.98;47.75;100893.25;16123713;19;131777;-55
2023/09/19 17:09:10;;;;;;;10.07;2.40;;;;;;;21.98;47.72;100896.03;16119971;19;130261;-53
2023/09/19 17:14:35;;;;;;;12.98;2.47;;;;;;;21.98;47.84;100891.28;16117708;19;131432;-53
2023/09/19 17:19:58;;;;;;;11.33;2.93;;;;;;;21.97;48.02;100897.13;16121011;19;129833;-52
2023/09/19 17:25:21;;;;;;;50.95;4.00;;;;;;;21.97;47.76;100911.06;16120686;19;129939;-53
2023/09/19 17:30:43;;;;;;;20.90;2.83;;;;;;;21.96;48.29;100912.16;16120282;19;130669;-48
2023/09/19 17:36:14;;;;;;;22.45;2.55;;;;;;;22.01;47.99;100909.41;16118102;19;129511;-50
2023/09/19 17:41:35;;;;;;;20.48;2.83;;;;;;;22.04;48.03;100906.06;16117630;19;129876;-50
2023/09/19 17:46:57;;;;;;;68.40;5.10;;;;;;;22.07;47.84;100907.50;16116834;19;130241;-51
2023/09/19 17:52:20;;;;;;;63.30;5.32;;;;;;;22.09;47.90;100908.06;16119739;19;129814;-52
2023/09/19 17:57:45;;;;;;;39.17;4.53;;;;;;;22.11;47.96;100905.81;16117475;19;130586;-49
2023/09/19 18:03:10;;;;;;;46.10;4.13;;;;;;;22.11;47.79;100915.03;16117460;19;134589;-51
2023/09/19 18:08:33;;;;;;;49.83;5.03;;;;;;;22.13;47.85;100920.34;16114167;19;130539;-51
2023/09/19 18:13:57;;;;;;;34.17;4.40;;;;;;;22.10;47.65;100918.09;16113737;19;130666;-48
2023/09/19 18:19:20;;;;;;;41.60;4.67;;;;;;;22.07;47.85;100905.53;16113083;19;131065;-50
2023/09/19 18:24:42;;;;;;;32.15;4.15;;;;;;;22.05;47.58;100890.22;16110994;19;130764;-50
2023/09/19 18:30:04;;;;;;;31.35;3.03;;;;;;;22.04;47.19;100891.31;16117685;19;131059;-54
2023/09/19 18:35:30;;;;;;;21.40;3.10;;;;;;;22.05;47.44;100893.81;16107655;19;129836;-49
2023/09/19 18:40:52;;;;;;;19.38;2.53;;;;;;;22.08;47.37;100898.84;16113708;19;130893;-50
2023/09/19 18:46:16;;;;;;;17.33;2.42;;;;;;;22.11;47.43;100908.63;16117422;19;129643;-49
2023/09/19 18:51:39;;;;;;;22.67;3.05;;;;;;;22.15;47.33;100911.72;16116620;19;129351;-47
2023/09/19 18:57:03;;;;;;;12.15;2.05;;;;;;;22.18;47.03;100913.94;16114958;19;131177;-59
2023/09/19 19:02:26;;;;;;;18.02;2.70;;;;;;;22.19;46.93;100910.91;16116158;19;133734;-52
2023/09/19 19:07:48;;;;;;;22.90;2.53;;;;;;;22.21;47.48;100899.50;16119626;19;130450;-57
2023/09/19 19:13:11;;;;;;;16.92;2.50;;;;;;;22.24;47.52;100885.88;16118317;19;131122;-51
2023/09/19 19:18:32;;;;;;;15.02;2.33;;;;;;;22.26;46.99;100882.81;16115202;19;130381;-53
2023/09/19 19:23:55;;;;;;;18.65;2.72;;;;;;;22.27;47.66;100890.91;16118541;19;131416;-57
2023/09/19 19:29:17;;;;;;;12.45;2.28;;;;;;;22.29;47.64;100896.19;16115509;19;129865;-59
2023/09/19 19:34:40;;;;;;;7.82;1.77;;;;;;;22.30;47.59;100895.09;16116585;19;129585;-58
2023/09/19 19:40:03;;;;;;;11.93;1.73;;;;;;;22.31;47.45;100896.75;16114101;19;131083;-52
2023/09/19 19:45:25;;;;;;;7.03;1.60;;;;;;;22.33;47.82;100897.34;16114659;19;130927;-59
2023/09/19 19:50:47;;;;;;;11.50;2.00;;;;;;;22.34;47.74;100890.66;16116564;19;129749;-53
2023/09/19 19:56:09;;;;;;;6.78;1.58;;;;;;;22.34;47.70;100899.00;16119007;19;131264;-56
2023/09/19 20:01:31;;;;;;;13.35;1.92;;;;;;;22.34;47.51;100907.38;16110241;19;130791;-54
2023/09/19 20:06:53;;;;;;;11.85;2.00;;;;;;;22.35;47.75;100906.25;16108269;19;130689;-56
2023/09/19 20:12:15;;;;;;;7.80;1.63;;;;;;;22.35;47.54;100897.91;16111952;19;130406;-53
2023/09/19 20:17:38;;;;;;;9.25;1.92;;;;;;;22.36;47.35;100898.72;16113678;19;129524;-52
2023/09/19 20:23:01;;;;;;;12.38;2.03;;;;;;;22.37;47.40;100900.41;16108924;19;129125;-50
2023/09/19 20:28:24;;;;;;;15.10;1.95;;;;;;;22.38;46.83;100902.94;16107253;19;130526;-55
2023/09/19 20:33:46;;;;;;;19.25;1.63;;;;;;;22.37;47.06;100900.41;16108757;19;130964;-54
2023/09/19 20:39:10;;;;;;;9.02;1.45;;;;;;;22.34;47.06;100893.44;16106701;19;131004;-57
2023/09/19 20:44:32;;;;;;;6.63;1.40;;;;;;;22.31;47.00;100890.38;16105711;19;130557;-55
2023/09/19 20:49:54;;;;;;;9.30;2.03;;;;;;;22.28;47.29;100884.22;16114382;19;129909;-57
2023/09/19 20:55:17;;;;;;;4.38;1.63;;;;;;;22.24;46.92;100879.47;16122633;19;129872;-56
2023/09/19 21:00:40;;;;;;;6.82;1.48;;;;;;;22.21;47.03;100880.00;16122368;19;130273;-56
2023/09/19 21:06:13;;;;;;;9.57;1.70;;;;;;;22.21;46.87;100878.06;16122447;19;129924;-56
2023/09/19 21:11:35;;;;;;;9.02;2.30;;;;;;;22.18;46.84;100874.94;16122596;19;130917;-53
2023/09/19 21:16:58;;;;;;;7.68;1.52;;;;;;;22.15;46.96;100862.41;16119608;19;130661;-55
2023/09/19 21:22:20;;;;;;;6.82;1.60;;;;;;;22.14;47.18;100869.06;16121604;19;130698;-56
2023/09/19 21:27:42;;;;;;;7.68;1.50;;;;;;;22.12;46.65;100860.16;16118538;19;130392;-56
2023/09/19 21:33:04;;;;;;;6.82;1.50;;;;;;;22.10;47.13;100856.78;16121385;19;130506;-53
2023/09/19 21:38:26;;;;;;;5.20;1.48;;;;;;;22.08;46.90;100859.03;16119671;19;130277;-57
2023/09/19 21:43:49;;;;;;;3.35;1.42;;;;;;;22.07;46.73;100852.59;16118079;19;130063;-53
2023/09/19 21:49:12;;;;;;;6.03;1.75;;;;;;;22.07;46.98;100862.94;16119319;19;129962;-55
2023/09/19 21:54:34;;;;;;;3.72;1.15;;;;;;;22.03;46.82;100865.38;16118240;19;131318;-53
2023/09/19 21:59:56;;;;;;;4.78;1.50;;;;;;;22.04;46.58;100863.47;16119418;19;131021;-55
2023/09/19 22:05:18;;;;;;;3.15;1.20;;;;;;;22.01;46.90;100850.94;16119438;19;129606;-56
2023/09/19 22:10:42;;;;;;;5.97;1.70;;;;;;;22.02;46.97;100865.69;16119812;19;130734;-52
2023/09/19 22:16:04;;;;;;;4.72;1.40;;;;;;;21.99;47.10;100869.84;16119394;19;130079;-55
2023/09/19 22:21:36;;;;;;;3.63;1.38;;;;;;;21.98;46.69;100870.97;16119625;19;130946;-56
2023/09/19 22:26:59;;;;;;;4.50;1.55;;;;;;;21.96;46.83;100865.66;16118902;19;130127;-50
2023/09/19 22:32:22;;;;;;;4.85;1.60;;;;;;;21.96;46.47;100856.47;16112344;19;129605;-55
2023/09/19 22:37:44;;;;;;;3.85;1.27;;;;;;;21.94;46.73;100853.94;16116485;19;129415;-55
2023/09/19 22:43:06;;;;;;;3.17;1.40;;;;;;;21.92;46.77;100847.81;16115428;19;130655;-53
2023/09/19 22:48:29;;;;;;;6.35;1.60;;;;;;;21.93;46.86;100846.69;16118615;19;129902;-55
2023/09/19 22:53:57;;;;;;;6.93;1.80;;;;;;;21.92;46.77;100856.16;16118823;19;131302;-55
2023/09/19 22:59:20;;;;;;;3.70;1.45;;;;;;;21.92;46.37;100846.94;16117670;19;129452;-57
2023/09/19 23:04:43;;;;;;;5.13;1.58;;;;;;;21.91;46.76;100845.31;16117500;19;130963;-55
2023/09/19 23:10:06;;;;;;;5.60;1.75;;;;;;;21.90;46.65;100843.63;16115962;19;130539;-54
2023/09/19 23:15:27;;;;;;;4.82;1.63;;;;;;;21.89;46.39;100851.13;16113436;19;131072;-52
2023/09/19 23:20:57;;;;;;;5.75;1.80;;;;;;;21.89;46.33;100855.88;16118738;19;130412;-54
2023/09/19 23:26:19;;;;;;;3.17;1.33;;;;;;;21.87;46.71;100853.34;16115548;19;130668;-56
2023/09/19 23:31:44;;;;;;;4.18;1.33;;;;;;;21.86;46.48;100853.63;16115214;19;130625;-55
2023/09/19 23:37:05;;;;;;;5.75;1.40;;;;;;;21.85;46.67;100852.75;16113425;19;130021;-57
2023/09/19 23:42:30;;;;;;;4.22;1.30;;;;;;;21.86;46.40;100850.84;16113323;19;131821;-55
2023/09/19 23:47:53;;;;;;;3.38;1.50;;;;;;;21.83;46.48;100850.25;16111797;19;131726;-55
2023/09/19 23:53:15;;;;;;;2.25;1.00;;;;;;;21.83;46.59;100858.63;16112544;19;130873;-56
2023/09/19 23:58:37;;;;;;;4.88;1.80;;;;;;;21.82;47.02;100856.94;16111596;19;130978;-55
